Time;durP1;ratioP1;P1;durP2;ratioP2;P2;SDS_P1;SDS_P2;PMS_P1;PMS_P2;Temp;Humidity;BMP_temperature;BMP_pressure;BME280_temperature;BME280_humidity;BME280_pressure;Samples;Min_cycle;Max_cycle;Signal;HPM_P1;HPM_P2
2021/12/16 00:09:09;;;;;;;;;;;7.70;99.90;;;;;;5107247;28;19931;-79
2021/12/16 00:33:13;;;;;;;;;;;7.90;99.90;;;;;;5096831;28;19928;-78
2021/12/16 00:35:41;;;;;;;;;;;8.00;99.90;;;;;;5088272;28;19990;-81
2021/12/16 00:38:07;;;;;;;;;;;8.00;99.90;;;;;;5060092;28;19928;-79
2021/12/16 00:40:33;;;;;;;;;;;8.00;99.90;;;;;;5093151;28;19920;-78
2021/12/16 00:43:11;;;;;;;;;;;8.00;99.90;;;;;;5059945;28;20025;-78
2021/12/16 00:46:33;;;;;;;;;;;8.00;99.90;;;;;;5115465;27;19924;-79
2021/12/16 00:48:48;;;;;;;;;;;7.90;99.90;;;;;;5063163;28;20011;-81
2021/12/16 00:54:09;;;;;;;;;;;7.90;99.90;;;;;;5072868;28;19935;-79
2021/12/16 00:56:36;;;;;;;;;;;7.90;99.90;;;;;;5088773;28;19924;-79
2021/12/16 00:59:04;;;;;;;;;;;8.00;99.90;;;;;;5067729;28;19933;-79
2021/12/16 01:01:41;;;;;;;;;;;7.90;99.90;;;;;;5055747;28;19971;-79
2021/12/16 01:10:27;;;;;;;;;;;8.00;99.90;;;;;;5088497;28;19972;-78
2021/12/16 01:33:40;;;;;;;;;;;8.00;99.90;;;;;;5038644;28;19939;-78
2021/12/16 01:34:54;;;;;;;;;;;8.00;99.90;;;;;;5081858;28;20016;-80
2021/12/16 01:50:35;;;;;;;;;;;8.00;99.90;;;;;;5077156;28;19930;-80
2021/12/16 01:56:20;;;;;;;;;;;8.00;99.90;;;;;;5044298;28;19928;-78
2021/12/16 01:58:46;;;;;;;;;;;8.00;99.90;;;;;;5013719;28;19925;-79
2021/12/16 02:01:19;;;;;;;;;;;8.00;99.90;;;;;;5044298;28;19929;-78
2021/12/16 02:03:52;;;;;;;;;;;8.00;99.90;;;;;;5055139;28;19928;-77
2021/12/16 02:09:04;;;;;;;;;;;8.00;99.90;;;;;;5077989;28;19935;-78
2021/12/16 02:35:35;;;;;;;;;;;8.00;99.90;;;;;;5091299;28;20031;-78
2021/12/16 02:38:04;;;;;;;;;;;8.00;99.90;;;;;;5069932;28;19924;-78
2021/12/16 02:40:30;;;;;;;;;;;8.00;99.90;;;;;;5070634;28;19929;-78
2021/12/16 02:43:02;;;;;;;;;;;8.00;99.90;;;;;;5072292;28;19932;-78
2021/12/16 02:48:36;;;;;;;;;;;8.00;99.90;;;;;;5056396;28;19924;-78
2021/12/16 02:51:05;;;;;;;;;;;8.00;99.90;;;;;;5070916;28;19928;-78
2021/12/16 02:53:31;;;;;;;;;;;8.00;99.90;;;;;;5070079;28;19924;-79
2021/12/16 02:55:57;;;;;;;;;;;8.00;99.90;;;;;;5070798;28;19924;-78
2021/12/16 02:58:22;;;;;;;;;;;8.00;99.90;;;;;;5055529;28;19924;-78
2021/12/16 03:00:52;;;;;;;;;;;8.00;99.90;;;;;;5073848;28;19924;-78
2021/12/16 03:03:18;;;;;;;;;;;8.00;99.90;;;;;;5108033;28;19931;-78
2021/12/16 03:05:44;;;;;;;;;;;7.90;99.90;;;;;;5090711;28;19928;-81
2021/12/16 03:08:09;;;;;;;;;;;7.90;99.90;;;;;;5090721;28;20437;-78
2021/12/16 03:13:33;;;;;;;;;;;8.00;99.90;;;;;;5091079;28;20058;-78
2021/12/16 03:16:23;;;;;;;;;;;7.90;99.90;;;;;;5074474;28;19931;-78
2021/12/16 03:21:20;;;;;;;;;;;7.90;99.90;;;;;;5091076;28;20387;-78
2021/12/16 03:37:31;;;;;;;;;;;7.80;99.90;;;;;;5026530;28;20016;-85
2021/12/16 03:40:07;;;;;;;;;;;7.80;99.90;;;;;;5080109;28;19928;-79
2021/12/16 03:42:39;;;;;;;;;;;7.60;99.90;;;;;;5090609;28;19925;-86
2021/12/16 03:45:07;;;;;;;;;;;7.60;99.90;;;;;;5073472;28;20373;-79
2021/12/16 03:47:39;;;;;;;;;;;7.60;99.90;;;;;;5072969;28;19999;-84
2021/12/16 03:50:16;;;;;;;;;;;7.60;99.90;;;;;;5083005;28;19924;-80
2021/12/16 03:52:42;;;;;;;;;;;7.50;99.90;;;;;;5075085;28;20035;-79
2021/12/16 03:55:09;;;;;;;;;;;7.40;99.90;;;;;;5090676;28;19967;-78
2021/12/16 03:57:34;;;;;;;;;;;7.30;99.90;;;;;;5073497;28;19931;-78
2021/12/16 04:00:00;;;;;;;;;;;7.20;99.90;;;;;;5086849;28;19924;-78
2021/12/16 04:02:31;;;;;;;;;;;7.20;99.90;;;;;;5070353;28;19971;-78
2021/12/16 04:04:57;;;;;;;;;;;7.10;99.90;;;;;;5055248;28;19964;-78
2021/12/16 04:07:25;;;;;;;;;;;7.10;99.90;;;;;;5057691;28;19978;-78
2021/12/16 04:09:51;;;;;;;;;;;7.00;99.90;;;;;;5073923;28;20629;-78
2021/12/16 04:12:20;;;;;;;;;;;6.90;99.90;;;;;;5074615;28;20007;-77
2021/12/16 04:14:47;;;;;;;;;;;6.90;99.90;;;;;;5073631;28;19935;-77
2021/12/16 04:17:14;;;;;;;;;;;6.80;99.90;;;;;;5074157;28;19989;-78
2021/12/16 04:19:39;;;;;;;;;;;6.80;99.90;;;;;;5090153;28;19924;-79
2021/12/16 04:22:08;;;;;;;;;;;6.80;99.90;;;;;;5094402;28;19919;-80
2021/12/16 04:24:34;;;;;;;;;;;6.70;99.90;;;;;;5094363;28;19924;-79
2021/12/16 04:27:00;;;;;;;;;;;6.70;99.90;;;;;;5077006;28;20361;-78
2021/12/16 04:29:26;;;;;;;;;;;6.70;99.90;;;;;;5060688;28;19932;-78
2021/12/16 04:31:53;;;;;;;;;;;6.60;99.90;;;;;;5058432;28;19968;-78
2021/12/16 04:34:18;;;;;;;;;;;6.60;99.90;;;;;;5074318;28;19986;-78
2021/12/16 04:36:44;;;;;;;;;;;6.60;99.90;;;;;;5073586;28;19966;-78
2021/12/16 04:39:13;;;;;;;;;;;6.60;99.90;;;;;;5090812;28;19931;-80
2021/12/16 04:41:39;;;;;;;;;;;6.50;99.90;;;;;;5073973;28;19924;-82
2021/12/16 04:44:08;;;;;;;;;;;6.50;99.90;;;;;;5088877;28;19924;-78
2021/12/16 04:46:33;;;;;;;;;;;6.50;99.90;;;;;;5080209;28;19969;-78
2021/12/16 04:49:00;;;;;;;;;;;6.40;99.90;;;;;;5097315;28;19919;-78
2021/12/16 04:51:27;;;;;;;;;;;6.40;99.90;;;;;;5092792;28;19923;-78
2021/12/16 04:53:53;;;;;;;;;;;6.40;99.90;;;;;;5080276;28;20018;-78
2021/12/16 04:56:18;;;;;;;;;;;6.40;99.90;;;;;;5097153;28;20014;-78
2021/12/16 04:58:46;;;;;;;;;;;6.40;99.90;;;;;;5096802;28;19923;-78
2021/12/16 05:01:11;;;;;;;;;;;6.40;99.90;;;;;;5077815;28;19927;-78
2021/12/16 05:03:37;;;;;;;;;;;6.30;99.90;;;;;;5071736;28;19973;-78
2021/12/16 05:06:04;;;;;;;;;;;6.40;99.90;;;;;;5110512;28;19935;-78
2021/12/16 05:08:29;;;;;;;;;;;6.40;99.90;;;;;;5110543;27;19932;-79
2021/12/16 05:10:56;;;;;;;;;;;6.40;99.90;;;;;;5076740;28;19977;-78
2021/12/16 05:13:25;;;;;;;;;;;6.40;99.90;;;;;;5111837;28;19932;-78
2021/12/16 05:15:51;;;;;;;;;;;6.40;99.90;;;;;;5080568;28;19977;-78
2021/12/16 05:18:21;;;;;;;;;;;6.40;99.90;;;;;;5097317;28;19930;-78
2021/12/16 05:20:47;;;;;;;;;;;6.50;99.90;;;;;;5096588;28;19923;-78
2021/12/16 05:28:23;;;;;;;;;;;6.30;99.90;;;;;;5096646;28;19949;-77
2021/12/16 05:30:49;;;;;;;;;;;6.40;99.90;;;;;;5096353;28;19923;-79
2021/12/16 05:33:16;;;;;;;;;;;6.40;99.90;;;;;;5114039;28;19924;-78
2021/12/16 05:35:41;;;;;;;;;;;6.50;99.90;;;;;;5079451;28;19928;-78
2021/12/16 05:38:07;;;;;;;;;;;6.60;99.90;;;;;;5096448;28;19930;-78
2021/12/16 05:40:33;;;;;;;;;;;6.70;99.90;;;;;;5096707;28;19931;-77
2021/12/16 05:43:01;;;;;;;;;;;6.70;99.90;;;;;;5096141;28;19935;-78
2021/12/16 05:45:27;;;;;;;;;;;6.80;99.90;;;;;;5093306;28;20006;-78
2021/12/16 05:47:54;;;;;;;;;;;6.90;99.90;;;;;;5085702;28;20117;-78
2021/12/16 05:50:20;;;;;;;;;;;6.90;99.90;;;;;;5110090;28;19959;-78
2021/12/16 05:52:45;;;;;;;;;;;6.90;99.90;;;;;;5092673;28;19937;-84
2021/12/16 05:55:12;;;;;;;;;;;6.90;99.90;;;;;;5092795;28;19928;-78
2021/12/16 05:57:38;;;;;;;;;;;6.90;99.90;;;;;;5063657;28;19924;-78
2021/12/16 06:00:05;;;;;;;;;;;6.90;99.90;;;;;;5094894;28;19930;-82
2021/12/16 06:02:31;;;;;;;;;;;6.90;99.90;;;;;;5107119;28;20459;-78
2021/12/16 06:04:56;;;;;;;;;;;7.00;99.90;;;;;;5095552;28;19979;-79
2021/12/16 06:07:22;;;;;;;;;;;7.00;99.90;;;;;;5095726;28;20002;-78
2021/12/16 06:09:48;;;;;;;;;;;7.00;99.90;;;;;;5058498;28;19924;-90
2021/12/16 06:12:14;;;;;;;;;;;7.00;99.90;;;;;;5077594;28;19959;-78
2021/12/16 06:14:55;;;;;;;;;;;6.90;99.90;;;;;;5094547;28;20388;-78
2021/12/16 06:28:08;;;;;;;;;;;7.10;99.90;;;;;;5123110;27;19928;-78
2021/12/16 06:30:36;;;;;;;;;;;7.10;99.90;;;;;;5083703;28;20014;-76
2021/12/16 06:33:02;;;;;;;;;;;7.10;99.90;;;;;;5112948;27;19936;-77
2021/12/16 06:35:28;;;;;;;;;;;7.10;99.90;;;;;;5109073;28;19924;-77
2021/12/16 06:37:53;;;;;;;;;;;7.10;99.90;;;;;;5074559;28;20031;-78
2021/12/16 06:40:19;;;;;;;;;;;7.10;99.90;;;;;;5084592;28;20405;-79
2021/12/16 06:42:47;;;;;;;;;;;7.10;99.90;;;;;;5091434;28;19923;-78
2021/12/16 06:45:19;;;;;;;;;;;7.10;99.90;;;;;;5073474;28;20679;-78
2021/12/16 06:47:57;;;;;;;;;;;7.10;99.90;;;;;;5096694;27;19923;-78
2021/12/16 06:51:10;;;;;;;;;;;7.00;99.90;;;;;;5078634;28;20015;-78
2021/12/16 06:53:18;;;;;;;;;;;7.00;99.90;;;;;;5085368;28;20002;-79
2021/12/16 06:55:51;;;;;;;;;;;7.00;99.90;;;;;;5091836;28;20315;-77
2021/12/16 06:58:24;;;;;;;;;;;7.00;99.90;;;;;;5059081;28;20011;-77
2021/12/16 07:00:53;;;;;;;;;;;7.00;99.90;;;;;;5097125;28;19934;-78
2021/12/16 07:03:21;;;;;;;;;;;6.90;99.90;;;;;;5116211;27;19950;-78
2021/12/16 07:05:53;;;;;;;;;;;6.90;99.90;;;;;;5087670;28;19935;-79
2021/12/16 07:08:19;;;;;;;;;;;6.80;99.90;;;;;;5093808;28;20390;-78
2021/12/16 07:10:46;;;;;;;;;;;6.70;99.90;;;;;;5061304;28;19924;-78
2021/12/16 07:13:19;;;;;;;;;;;6.70;99.90;;;;;;5077277;28;19939;-79
2021/12/16 07:15:46;;;;;;;;;;;6.60;99.90;;;;;;5077822;28;19923;-79
2021/12/16 07:18:11;;;;;;;;;;;6.60;99.90;;;;;;5094536;28;19969;-79
2021/12/16 07:20:37;;;;;;;;;;;6.60;99.90;;;;;;5111478;28;19988;-79
2021/12/16 07:23:05;;;;;;;;;;;6.50;99.90;;;;;;5128008;27;19924;-78
2021/12/16 07:25:31;;;;;;;;;;;6.50;99.90;;;;;;5111391;28;19977;-79
2021/12/16 07:27:56;;;;;;;;;;;6.40;99.90;;;;;;5093862;28;19927;-84
2021/12/16 07:30:23;;;;;;;;;;;6.40;99.90;;;;;;5111173;28;19923;-79
2021/12/16 07:32:48;;;;;;;;;;;6.30;99.90;;;;;;5111426;28;19923;-78
2021/12/16 07:35:16;;;;;;;;;;;6.30;99.90;;;;;;5110860;28;20280;-80
2021/12/16 07:37:41;;;;;;;;;;;6.20;99.90;;;;;;5145602;27;19928;-79
2021/12/16 07:40:08;;;;;;;;;;;6.20;99.90;;;;;;5147739;27;19924;-78
2021/12/16 07:42:45;;;;;;;;;;;6.20;99.90;;;;;;5115315;28;19927;-78
2021/12/16 07:45:12;;;;;;;;;;;6.20;99.90;;;;;;5080869;28;20369;-80
2021/12/16 07:47:37;;;;;;;;;;;6.20;99.90;;;;;;5080797;28;20000;-78
2021/12/16 07:50:03;;;;;;;;;;;6.20;99.90;;;;;;5080851;28;20386;-79
2021/12/16 07:52:32;;;;;;;;;;;6.20;99.90;;;;;;5098224;28;19934;-79
2021/12/16 07:54:57;;;;;;;;;;;6.30;99.90;;;;;;5081597;28;20327;-78
2021/12/16 07:57:23;;;;;;;;;;;6.20;99.90;;;;;;5114720;28;19923;-78
2021/12/16 07:59:49;;;;;;;;;;;6.20;99.90;;;;;;5132374;27;19928;-78
2021/12/16 08:02:15;;;;;;;;;;;6.20;99.90;;;;;;5080457;28;19924;-78
2021/12/16 08:04:43;;;;;;;;;;;6.30;99.90;;;;;;5097839;28;19930;-79
2021/12/16 08:07:10;;;;;;;;;;;6.30;99.90;;;;;;5080655;28;19923;-79
2021/12/16 08:09:37;;;;;;;;;;;6.30;99.90;;;;;;5080299;28;19923;-78
2021/12/16 08:12:03;;;;;;;;;;;6.30;99.90;;;;;;5080975;28;19924;-79
2021/12/16 08:14:29;;;;;;;;;;;6.40;99.90;;;;;;5080815;28;19924;-78
2021/12/16 08:16:56;;;;;;;;;;;6.40;99.90;;;;;;5097808;28;19928;-79
2021/12/16 08:19:22;;;;;;;;;;;6.40;99.90;;;;;;5107631;28;20651;-79
2021/12/16 08:21:47;;;;;;;;;;;6.40;99.90;;;;;;5114788;28;19931;-78
2021/12/16 08:24:14;;;;;;;;;;;6.40;99.90;;;;;;5114208;28;19924;-78
2021/12/16 08:26:40;;;;;;;;;;;6.40;99.90;;;;;;5114654;28;19924;-78
2021/12/16 08:29:05;;;;;;;;;;;6.40;99.90;;;;;;5114006;28;19924;-81
2021/12/16 08:31:31;;;;;;;;;;;6.40;99.90;;;;;;5114549;28;20015;-79
2021/12/16 08:33:58;;;;;;;;;;;6.50;99.90;;;;;;5097431;28;19934;-78
2021/12/16 08:36:24;;;;;;;;;;;6.50;99.90;;;;;;5114371;28;20562;-79
2021/12/16 08:38:50;;;;;;;;;;;6.50;99.90;;;;;;5114446;28;19932;-79
2021/12/16 08:41:20;;;;;;;;;;;6.50;99.90;;;;;;5114102;28;19931;-79
2021/12/16 08:43:46;;;;;;;;;;;6.50;99.90;;;;;;5088188;28;19928;-78
2021/12/16 08:46:13;;;;;;;;;;;6.60;99.90;;;;;;5096205;28;19935;-78
2021/12/16 08:48:40;;;;;;;;;;;6.60;99.90;;;;;;5079625;28;19931;-78
2021/12/16 08:51:05;;;;;;;;;;;6.70;99.90;;;;;;5079846;28;19993;-83
2021/12/16 08:53:31;;;;;;;;;;;6.80;99.90;;;;;;5096697;28;20373;-79
2021/12/16 08:55:57;;;;;;;;;;;6.90;99.90;;;;;;5080468;28;19977;-78
2021/12/16 08:58:23;;;;;;;;;;;7.00;99.90;;;;;;5079869;28;19923;-78
2021/12/16 09:00:56;;;;;;;;;;;7.10;99.90;;;;;;5079868;28;19988;-79
2021/12/16 09:03:21;;;;;;;;;;;7.20;99.90;;;;;;5096644;28;19958;-78
2021/12/16 09:05:47;;;;;;;;;;;7.30;99.90;;;;;;5079963;28;19924;-79
2021/12/16 09:08:13;;;;;;;;;;;7.20;99.90;;;;;;5096171;28;20018;-78
2021/12/16 09:10:38;;;;;;;;;;;7.20;99.90;;;;;;5096327;28;19924;-79
2021/12/16 09:13:09;;;;;;;;;;;7.20;99.90;;;;;;5079412;28;19928;-79
2021/12/16 09:15:40;;;;;;;;;;;7.20;99.90;;;;;;5079947;28;19924;-78
2021/12/16 09:18:06;;;;;;;;;;;7.20;99.90;;;;;;5096648;28;19928;-79
2021/12/16 09:20:33;;;;;;;;;;;7.30;99.90;;;;;;5079175;28;19981;-80
2021/12/16 09:22:59;;;;;;;;;;;7.30;99.90;;;;;;5079904;28;20030;-79
2021/12/16 09:25:25;;;;;;;;;;;7.40;99.90;;;;;;5079146;28;19919;-78
2021/12/16 09:27:51;;;;;;;;;;;7.40;99.90;;;;;;5096235;28;19924;-79
2021/12/16 09:30:18;;;;;;;;;;;7.40;99.90;;;;;;5096311;28;19927;-78
2021/12/16 09:32:45;;;;;;;;;;;7.40;99.90;;;;;;5079520;28;19924;-77
2021/12/16 09:35:11;;;;;;;;;;;7.40;99.90;;;;;;5079804;28;19975;-85
2021/12/16 09:37:38;;;;;;;;;;;7.50;99.90;;;;;;5079721;28;19924;-78
2021/12/16 09:40:06;;;;;;;;;;;7.50;99.90;;;;;;5096665;28;19924;-78
2021/12/16 09:42:31;;;;;;;;;;;7.60;99.90;;;;;;5078654;28;19924;-78
2021/12/16 09:44:57;;;;;;;;;;;7.80;99.90;;;;;;5079389;28;20019;-78
2021/12/16 09:47:23;;;;;;;;;;;7.80;99.90;;;;;;5109327;28;19924;-78
2021/12/16 09:49:49;;;;;;;;;;;7.80;99.90;;;;;;5076077;28;19924;-78
2021/12/16 09:52:15;;;;;;;;;;;7.80;99.90;;;;;;5075636;28;20242;-78
2021/12/16 09:54:42;;;;;;;;;;;7.90;99.90;;;;;;5109701;28;19935;-78
2021/12/16 09:57:08;;;;;;;;;;;7.90;99.90;;;;;;5076072;28;19924;-76
2021/12/16 09:59:34;;;;;;;;;;;8.00;99.90;;;;;;5092192;28;20583;-78
2021/12/16 10:02:04;;;;;;;;;;;8.00;99.90;;;;;;5125834;27;20058;-80
2021/12/16 10:04:31;;;;;;;;;;;8.10;99.90;;;;;;5092234;28;19924;-79
2021/12/16 10:06:59;;;;;;;;;;;8.10;99.90;;;;;;5092719;28;20262;-78
2021/12/16 10:09:25;;;;;;;;;;;8.10;99.90;;;;;;5074735;28;19934;-78
2021/12/16 10:11:52;;;;;;;;;;;8.10;99.90;;;;;;5092441;28;19953;-78
2021/12/16 10:19:31;;;;;;;;;;;8.20;99.90;;;;;;5091271;28;20250;-78
2021/12/16 10:22:16;;;;;;;;;;;8.20;99.90;;;;;;5092378;28;19997;-78
2021/12/16 10:24:42;;;;;;;;;;;8.30;99.90;;;;;;5075580;28;19932;-78
2021/12/16 10:27:10;;;;;;;;;;;8.30;99.90;;;;;;5092289;28;20400;-78
2021/12/16 10:29:36;;;;;;;;;;;8.30;99.90;;;;;;5091723;28;19927;-78
2021/12/16 10:32:03;;;;;;;;;;;8.30;99.90;;;;;;5075443;28;19983;-78
2021/12/16 10:34:29;;;;;;;;;;;8.30;99.90;;;;;;5091918;28;20550;-78
2021/12/16 10:36:56;;;;;;;;;;;8.30;99.90;;;;;;5075111;28;19969;-78
2021/12/16 10:39:23;;;;;;;;;;;8.30;99.90;;;;;;5074725;28;19928;-78
2021/12/16 10:42:00;;;;;;;;;;;8.20;99.90;;;;;;5075303;28;19927;-78
2021/12/16 10:44:30;;;;;;;;;;;8.30;99.90;;;;;;5091839;28;19931;-78
2021/12/16 10:47:01;;;;;;;;;;;8.30;99.90;;;;;;5096161;28;20015;-78
2021/12/16 10:49:29;;;;;;;;;;;8.30;99.90;;;;;;5094978;28;20022;-79
2021/12/16 10:51:56;;;;;;;;;;;8.40;99.90;;;;;;5112087;28;19934;-79
2021/12/16 10:54:25;;;;;;;;;;;8.40;99.90;;;;;;5110998;28;20130;-78
2021/12/16 10:57:04;;;;;;;;;;;8.50;99.90;;;;;;5112243;28;19924;-78
2021/12/16 10:59:38;;;;;;;;;;;8.50;99.90;;;;;;5111961;28;19927;-79
2021/12/16 11:02:09;;;;;;;;;;;8.60;99.90;;;;;;5112242;28;20287;-78
2021/12/16 11:04:40;;;;;;;;;;;8.60;99.90;;;;;;5111544;28;19946;-78
2021/12/16 11:07:38;;;;;;;;;;;8.70;99.90;;;;;;5095146;28;19924;-78
2021/12/16 11:10:09;;;;;;;;;;;8.70;99.90;;;;;;5067101;28;20045;-78
2021/12/16 11:12:35;;;;;;;;;;;8.60;99.90;;;;;;5094532;28;19946;-78
2021/12/16 11:15:09;;;;;;;;;;;8.60;99.90;;;;;;5111192;28;20356;-80
2021/12/16 11:17:40;;;;;;;;;;;8.70;99.90;;;;;;5093687;28;20309;-78
2021/12/16 11:20:08;;;;;;;;;;;8.70;99.90;;;;;;5111743;28;19923;-78
2021/12/16 11:22:36;;;;;;;;;;;8.70;99.90;;;;;;5110944;28;19979;-79
2021/12/16 11:25:21;;;;;;;;;;;8.70;99.90;;;;;;5111552;28;20143;-79
2021/12/16 11:27:49;;;;;;;;;;;8.70;99.90;;;;;;5094760;28;19954;-78
2021/12/16 11:30:34;;;;;;;;;;;8.80;99.90;;;;;;5111401;28;19928;-78
2021/12/16 11:33:11;;;;;;;;;;;8.80;99.90;;;;;;5094159;28;20477;-79
2021/12/16 11:35:39;;;;;;;;;;;8.80;99.90;;;;;;5110932;28;19930;-78
2021/12/16 11:38:13;;;;;;;;;;;8.80;99.90;;;;;;5094753;28;19927;-78
2021/12/16 11:40:50;;;;;;;;;;;8.70;99.90;;;;;;5093889;28;20345;-80
2021/12/16 11:43:16;;;;;;;;;;;8.70;99.90;;;;;;5140912;27;19928;-78
2021/12/16 11:45:41;;;;;;;;;;;8.80;99.90;;;;;;5077155;28;20291;-78
2021/12/16 11:48:07;;;;;;;;;;;8.80;99.90;;;;;;5076786;28;20412;-78
2021/12/16 11:50:40;;;;;;;;;;;8.80;99.90;;;;;;5093475;28;19928;-78
2021/12/16 11:53:06;;;;;;;;;;;8.80;99.90;;;;;;5077302;28;20339;-78
2021/12/16 11:55:33;;;;;;;;;;;8.80;99.90;;;;;;5076728;28;19940;-78
2021/12/16 11:58:03;;;;;;;;;;;8.80;99.90;;;;;;5127804;28;19928;-79
2021/12/16 12:00:34;;;;;;;;;;;8.80;99.90;;;;;;5076802;28;19924;-78
2021/12/16 12:03:01;;;;;;;;;;;8.80;99.90;;;;;;5093847;28;19928;-78
2021/12/16 12:05:40;;;;;;;;;;;8.80;99.90;;;;;;5093672;28;20352;-84
2021/12/16 12:08:07;;;;;;;;;;;8.80;99.90;;;;;;5094003;28;20384;-78
2021/12/16 12:10:39;;;;;;;;;;;8.80;99.90;;;;;;5093660;28;19924;-78
2021/12/16 12:13:07;;;;;;;;;;;8.80;99.90;;;;;;5077081;28;19927;-79
2021/12/16 12:15:51;;;;;;;;;;;8.80;99.90;;;;;;5093615;28;19928;-78
2021/12/16 12:18:35;;;;;;;;;;;8.90;99.90;;;;;;5093880;28;19949;-78
2021/12/16 12:21:33;;;;;;;;;;;8.90;99.90;;;;;;5093777;28;19971;-78
2021/12/16 12:24:05;;;;;;;;;;;8.90;99.90;;;;;;5032515;28;19973;-78
2021/12/16 12:26:32;;;;;;;;;;;8.80;99.90;;;;;;5079349;28;19928;-80
2021/12/16 12:29:00;;;;;;;;;;;8.90;99.90;;;;;;5097570;28;19973;-78
2021/12/16 12:31:28;;;;;;;;;;;8.90;99.90;;;;;;5080615;28;19981;-78
2021/12/16 12:33:53;;;;;;;;;;;8.90;99.90;;;;;;5080113;28;19973;-78
2021/12/16 12:36:20;;;;;;;;;;;8.90;99.90;;;;;;5080684;28;20322;-79
2021/12/16 12:38:45;;;;;;;;;;;8.90;99.90;;;;;;5079961;28;19932;-77
2021/12/16 12:41:11;;;;;;;;;;;8.90;99.90;;;;;;5097391;28;20113;-78
2021/12/16 12:43:37;;;;;;;;;;;8.90;99.90;;;;;;5096860;28;19924;-77
2021/12/16 12:46:05;;;;;;;;;;;8.80;99.90;;;;;;5097293;28;19974;-77
2021/12/16 12:48:36;;;;;;;;;;;8.90;99.90;;;;;;5096328;28;19923;-83
2021/12/16 12:51:04;;;;;;;;;;;8.80;99.90;;;;;;5080148;28;20014;-79
2021/12/16 12:53:32;;;;;;;;;;;8.90;99.90;;;;;;5096836;28;19974;-85
2021/12/16 12:56:09;;;;;;;;;;;8.80;99.90;;;;;;5096893;28;19988;-78
2021/12/16 12:58:46;;;;;;;;;;;8.90;99.90;;;;;;5113234;28;19931;-77
2021/12/16 13:01:12;;;;;;;;;;;8.80;99.90;;;;;;5084047;28;19938;-78
2021/12/16 13:03:40;;;;;;;;;;;8.90;99.90;;;;;;5093299;28;19924;-78
2021/12/16 13:06:06;;;;;;;;;;;8.90;99.90;;;;;;5085229;28;19927;-81
2021/12/16 13:08:33;;;;;;;;;;;9.00;99.90;;;;;;5095314;28;19935;-83
2021/12/16 13:11:01;;;;;;;;;;;9.00;99.90;;;;;;5096171;28;19928;-79
2021/12/16 13:13:32;;;;;;;;;;;9.00;99.90;;;;;;5079964;28;19928;-81
2021/12/16 13:16:50;;;;;;;;;;;9.00;99.90;;;;;;5096144;28;19935;-80
2021/12/16 13:30:15;;;;;;;;;;;9.00;99.90;;;;;;5095373;28;19931;-80
2021/12/16 13:32:47;;;;;;;;;;;9.10;99.90;;;;;;5095147;28;20457;-80
2021/12/16 13:37:45;;;;;;;;;;;9.10;99.90;;;;;;5094235;28;19924;-80
2021/12/16 13:40:11;;;;;;;;;;;9.10;99.90;;;;;;5079183;28;19931;-80
2021/12/16 13:42:54;;;;;;;;;;;9.10;99.90;;;;;;5095620;28;19928;-86
2021/12/16 13:45:25;;;;;;;;;;;9.10;99.90;;;;;;5078591;28;19923;-81
2021/12/16 14:00:04;;;;;;;;;;;9.00;99.90;;;;;;5095053;28;19928;-80
2021/12/16 14:02:31;;;;;;;;;;;9.00;99.90;;;;;;5094568;28;20431;-80
2021/12/16 14:05:18;;;;;;;;;;;9.00;99.90;;;;;;5094474;28;19924;-80
2021/12/16 14:07:56;;;;;;;;;;;9.00;99.90;;;;;;5078247;28;19997;-80
2021/12/16 14:10:35;;;;;;;;;;;9.00;99.90;;;;;;5078701;28;20038;-80
2021/12/16 14:16:20;;;;;;;;;;;8.90;99.90;;;;;;5095039;28;19935;-79
2021/12/16 14:35:51;;;;;;;;;;;8.80;99.90;;;;;;5096188;28;19963;-80
2021/12/16 14:38:40;;;;;;;;;;;8.90;99.90;;;;;;5111400;28;20006;-79
2021/12/16 14:46:13;;;;;;;;;;;8.80;99.90;;;;;;5114624;27;19938;-79
2021/12/16 14:48:39;;;;;;;;;;;8.70;99.90;;;;;;5076945;28;19924;-80
2021/12/16 14:51:05;;;;;;;;;;;8.70;99.90;;;;;;5077364;28;19924;-80
2021/12/16 14:53:30;;;;;;;;;;;8.70;99.90;;;;;;5094542;28;20543;-80
2021/12/16 14:56:05;;;;;;;;;;;8.70;99.90;;;;;;5094090;28;19927;-78
2021/12/16 14:58:31;;;;;;;;;;;8.70;99.90;;;;;;5077415;28;19928;-81
2021/12/16 15:01:03;;;;;;;;;;;8.70;99.90;;;;;;5060292;28;19924;-79
2021/12/16 15:03:33;;;;;;;;;;;8.70;99.90;;;;;;5077516;28;19953;-77
2021/12/16 15:06:23;;;;;;;;;;;8.70;99.90;;;;;;5076970;28;19951;-77
2021/12/16 15:09:11;;;;;;;;;;;8.70;99.90;;;;;;5076800;28;20015;-77
2021/12/16 15:12:04;;;;;;;;;;;8.60;99.90;;;;;;5077685;28;20303;-81
2021/12/16 15:14:49;;;;;;;;;;;8.60;99.90;;;;;;5093844;28;19931;-77
2021/12/16 15:36:50;;;;;;;;;;;8.50;99.90;;;;;;5128107;27;19930;-78
2021/12/16 15:45:11;;;;;;;;;;;8.50;99.90;;;;;;5073547;28;19925;-78
2021/12/16 15:47:38;;;;;;;;;;;8.50;99.90;;;;;;5057106;28;19924;-79
2021/12/16 15:50:05;;;;;;;;;;;8.50;99.90;;;;;;5056133;28;20399;-80
2021/12/16 15:52:38;;;;;;;;;;;8.50;99.90;;;;;;5073741;28;19931;-80
2021/12/16 15:55:03;;;;;;;;;;;8.50;99.90;;;;;;5073296;28;20382;-78
2021/12/16 15:57:29;;;;;;;;;;;8.50;99.90;;;;;;5057027;28;19928;-78
2021/12/16 16:00:06;;;;;;;;;;;8.50;99.90;;;;;;5090003;28;19931;-78
2021/12/16 16:02:32;;;;;;;;;;;8.50;99.90;;;;;;5077769;28;19939;-78
2021/12/16 16:04:58;;;;;;;;;;;8.50;99.90;;;;;;5060934;28;19928;-76
2021/12/16 16:07:23;;;;;;;;;;;8.50;99.90;;;;;;5078093;28;19924;-78
2021/12/16 16:09:53;;;;;;;;;;;8.50;99.90;;;;;;5077771;28;19928;-80
2021/12/16 16:12:23;;;;;;;;;;;8.50;99.90;;;;;;5077380;28;19924;-78
2021/12/16 16:14:49;;;;;;;;;;;8.50;99.90;;;;;;5094656;28;19924;-78
2021/12/16 16:17:18;;;;;;;;;;;8.60;99.90;;;;;;5060302;28;19931;-79
2021/12/16 16:19:45;;;;;;;;;;;8.60;99.90;;;;;;5077376;28;19927;-79
2021/12/16 16:22:11;;;;;;;;;;;8.60;99.90;;;;;;5097255;28;19932;-80
2021/12/16 16:24:44;;;;;;;;;;;8.60;99.90;;;;;;5080409;28;19973;-79
2021/12/16 16:27:15;;;;;;;;;;;8.60;99.90;;;;;;5079844;28;19924;-81
2021/12/16 16:29:45;;;;;;;;;;;8.50;99.90;;;;;;5080037;28;19978;-80
2021/12/16 16:32:12;;;;;;;;;;;8.50;99.90;;;;;;5079912;28;19951;-80
2021/12/16 16:34:42;;;;;;;;;;;8.50;99.90;;;;;;5080572;28;20014;-81
2021/12/16 16:37:08;;;;;;;;;;;8.50;99.90;;;;;;5079932;28;19930;-79
2021/12/16 16:39:36;;;;;;;;;;;8.60;99.90;;;;;;5080140;28;19924;-80
2021/12/16 16:42:07;;;;;;;;;;;8.60;99.90;;;;;;5079860;28;19977;-79
2021/12/16 16:44:33;;;;;;;;;;;8.60;99.90;;;;;;5097443;28;19935;-80
2021/12/16 16:47:03;;;;;;;;;;;8.50;99.90;;;;;;5096750;28;19928;-79
2021/12/16 16:49:31;;;;;;;;;;;8.60;99.90;;;;;;5080441;28;19924;-78
2021/12/16 16:51:58;;;;;;;;;;;8.60;99.90;;;;;;5097059;28;20318;-83
2021/12/16 16:54:27;;;;;;;;;;;8.60;99.90;;;;;;5096980;28;19934;-79
2021/12/16 16:56:58;;;;;;;;;;;8.60;99.90;;;;;;5131369;27;19927;-79
2021/12/16 16:59:27;;;;;;;;;;;8.50;99.90;;;;;;5080330;28;19976;-82
2021/12/16 17:01:54;;;;;;;;;;;8.50;99.90;;;;;;5096982;28;19931;-79
2021/12/16 17:04:19;;;;;;;;;;;8.50;99.90;;;;;;5130804;27;19924;-80
2021/12/16 17:06:49;;;;;;;;;;;8.60;99.90;;;;;;5113943;28;19946;-80
2021/12/16 17:09:16;;;;;;;;;;;8.60;99.90;;;;;;5079674;28;20285;-79
2021/12/16 17:11:43;;;;;;;;;;;8.60;99.90;;;;;;5079787;28;20392;-80
2021/12/16 17:19:20;;;;;;;;;;;8.50;99.90;;;;;;5106712;28;20285;-80
2021/12/16 17:21:49;;;;;;;;;;;8.60;99.90;;;;;;5096865;28;19949;-80
2021/12/16 17:24:27;;;;;;;;;;;8.60;99.90;;;;;;5096159;28;19931;-81
2021/12/16 17:26:58;;;;;;;;;;;8.60;99.90;;;;;;5113695;28;20031;-80
2021/12/16 17:29:35;;;;;;;;;;;8.60;99.90;;;;;;5096048;28;19973;-80
2021/12/16 17:32:12;;;;;;;;;;;8.60;99.90;;;;;;5113739;28;20258;-86
2021/12/16 17:34:43;;;;;;;;;;;8.60;99.90;;;;;;5113641;28;19924;-81
2021/12/16 17:37:16;;;;;;;;;;;8.60;99.90;;;;;;5113452;28;19924;-83
2021/12/16 17:39:47;;;;;;;;;;;8.60;99.90;;;;;;5096581;28;19928;-81
2021/12/16 17:42:15;;;;;;;;;;;8.60;99.90;;;;;;5113553;28;19923;-80
2021/12/16 17:44:43;;;;;;;;;;;8.60;99.90;;;;;;5096773;28;20365;-84
2021/12/16 17:47:14;;;;;;;;;;;8.60;99.90;;;;;;5095571;28;19923;-79
2021/12/16 17:49:41;;;;;;;;;;;8.60;99.90;;;;;;5079129;28;19924;-80
2021/12/16 17:52:12;;;;;;;;;;;8.60;99.90;;;;;;5095641;28;20419;-79
2021/12/16 17:54:43;;;;;;;;;;;8.60;99.90;;;;;;5096135;28;19924;-79
2021/12/16 17:57:09;;;;;;;;;;;8.60;99.90;;;;;;5095461;28;20440;-79
2021/12/16 17:59:36;;;;;;;;;;;8.60;99.90;;;;;;5096301;28;20015;-80
2021/12/16 18:02:03;;;;;;;;;;;8.60;99.90;;;;;;5096045;28;19931;-78
2021/12/16 18:04:29;;;;;;;;;;;8.60;99.90;;;;;;5078873;28;20014;-78
2021/12/16 18:06:54;;;;;;;;;;;8.60;99.90;;;;;;5078604;28;20019;-79
2021/12/16 18:09:22;;;;;;;;;;;8.60;99.90;;;;;;5095315;28;19973;-83
2021/12/16 18:11:50;;;;;;;;;;;8.70;99.90;;;;;;5095994;28;19928;-80
2021/12/16 18:14:19;;;;;;;;;;;8.60;99.90;;;;;;5078631;28;19924;-79
2021/12/16 18:16:47;;;;;;;;;;;8.60;99.90;;;;;;5078895;28;19924;-80
2021/12/16 18:19:13;;;;;;;;;;;8.60;99.90;;;;;;5096657;28;20026;-81
2021/12/16 18:21:40;;;;;;;;;;;8.60;99.90;;;;;;5092094;28;20412;-81
2021/12/16 18:24:06;;;;;;;;;;;8.60;99.90;;;;;;5079760;28;19924;-82
2021/12/16 18:26:33;;;;;;;;;;;8.60;99.90;;;;;;5096792;28;20014;-83
2021/12/16 18:29:01;;;;;;;;;;;8.50;99.90;;;;;;5090173;28;20015;-83